sensor_id;sensor_type;location;lat;lon;timestamp;P1;durP1;ratioP1;P2;durP2;ratioP2
55330;SDS011;58851;42.984;20.336;2023-07-20T00:01:27;18.50;;;7.13;;
55330;SDS011;58851;42.984;20.336;2023-07-20T00:03:53;16.38;;;7.05;;
55330;SDS011;58851;42.984;20.336;2023-07-20T00:06:22;13.75;;;8.68;;
55330;SDS011;58851;42.984;20.336;2023-07-20T00:08:50;19.35;;;8.38;;
55330;SDS011;58851;42.984;20.336;2023-07-20T00:11:16;16.83;;;7.68;;
55330;SDS011;58851;42.984;20.336;2023-07-20T00:13:42;17.55;;;8.55;;
55330;SDS011;58851;42.984;20.336;2023-07-20T00:16:08;15.77;;;8.82;;
55330;SDS011;58851;42.984;20.336;2023-07-20T00:18:34;19.95;;;7.95;;
55330;SDS011;58851;42.984;20.336;2023-07-20T00:21:00;15.68;;;7.72;;
55330;SDS011;58851;42.984;20.336;2023-07-20T00:23:26;19.92;;;7.55;;
55330;SDS011;58851;42.984;20.336;2023-07-20T00:25:52;23.40;;;7.97;;
55330;SDS011;58851;42.984;20.336;2023-07-20T00:28:18;21.17;;;7.72;;
55330;SDS011;58851;42.984;20.336;2023-07-20T00:30:44;13.43;;;7.35;;
55330;SDS011;58851;42.984;20.336;2023-07-20T00:33:10;15.98;;;7.85;;
55330;SDS011;58851;42.984;20.336;2023-07-20T00:35:37;17.70;;;7.85;;
55330;SDS011;58851;42.984;20.336;2023-07-20T00:38:03;19.90;;;7.88;;
55330;SDS011;58851;42.984;20.336;2023-07-20T00:40:36;22.65;;;8.43;;
55330;SDS011;58851;42.984;20.336;2023-07-20T00:43:05;17.75;;;7.88;;
55330;SDS011;58851;42.984;20.336;2023-07-20T00:45:32;14.57;;;7.03;;
55330;SDS011;58851;42.984;20.336;2023-07-20T00:47:59;33.35;;;8.30;;
55330;SDS011;58851;42.984;20.336;2023-07-20T00:50:26;22.92;;;8.23;;
55330;SDS011;58851;42.984;20.336;2023-07-20T00:52:54;18.33;;;7.78;;
55330;SDS011;58851;42.984;20.336;2023-07-20T00:55:22;15.05;;;8.23;;
55330;SDS011;58851;42.984;20.336;2023-07-20T00:57:49;15.73;;;7.32;;
55330;SDS011;58851;42.984;20.336;2023-07-20T01:00:16;18.83;;;7.63;;
55330;SDS011;58851;42.984;20.336;2023-07-20T01:02:43;16.67;;;7.50;;
55330;SDS011;58851;42.984;20.336;2023-07-20T01:05:08;16.27;;;7.68;;
55330;SDS011;58851;42.984;20.336;2023-07-20T01:07:51;15.10;;;7.13;;
55330;SDS011;58851;42.984;20.336;2023-07-20T01:13:08;25.40;;;7.28;;
55330;SDS011;58851;42.984;20.336;2023-07-20T01:15:36;14.48;;;6.75;;
55330;SDS011;58851;42.984;20.336;2023-07-20T01:18:02;15.38;;;6.85;;
55330;SDS011;58851;42.984;20.336;2023-07-20T01:20:29;20.13;;;7.00;;
55330;SDS011;58851;42.984;20.336;2023-07-20T01:33:50;16.70;;;7.32;;
55330;SDS011;58851;42.984;20.336;2023-07-20T01:36:19;26.67;;;8.88;;
55330;SDS011;58851;42.984;20.336;2023-07-20T01:38:51;20.83;;;11.85;;
55330;SDS011;58851;42.984;20.336;2023-07-20T01:41:17;31.75;;;13.55;;
55330;SDS011;58851;42.984;20.336;2023-07-20T01:43:44;20.90;;;11.32;;
55330;SDS011;58851;42.984;20.336;2023-07-20T01:46:09;22.15;;;8.38;;
55330;SDS011;58851;42.984;20.336;2023-07-20T01:48:35;14.25;;;7.13;;
55330;SDS011;58851;42.984;20.336;2023-07-20T01:51:01;13.68;;;7.40;;
55330;SDS011;58851;42.984;20.336;2023-07-20T01:53:27;15.52;;;7.15;;
55330;SDS011;58851;42.984;20.336;2023-07-20T01:55:53;14.18;;;7.07;;
55330;SDS011;58851;42.984;20.336;2023-07-20T01:58:22;16.35;;;8.00;;
55330;SDS011;58851;42.984;20.336;2023-07-20T02:00:48;24.25;;;8.45;;
55330;SDS011;58851;42.984;20.336;2023-07-20T02:03:14;13.35;;;7.65;;
55330;SDS011;58851;42.984;20.336;2023-07-20T02:05:42;23.48;;;11.48;;
55330;SDS011;58851;42.984;20.336;2023-07-20T02:08:08;24.45;;;10.55;;
55330;SDS011;58851;42.984;20.336;2023-07-20T02:10:34;23.40;;;9.27;;
55330;SDS011;58851;42.984;20.336;2023-07-20T02:13:00;15.80;;;7.70;;
55330;SDS011;58851;42.984;20.336;2023-07-20T02:15:26;15.10;;;7.18;;
55330;SDS011;58851;42.984;20.336;2023-07-20T02:17:53;18.05;;;7.20;;
55330;SDS011;58851;42.984;20.336;2023-07-20T02:20:19;13.15;;;7.13;;
55330;SDS011;58851;42.984;20.336;2023-07-20T02:22:45;12.85;;;7.43;;
55330;SDS011;58851;42.984;20.336;2023-07-20T02:25:12;18.55;;;8.70;;
55330;SDS011;58851;42.984;20.336;2023-07-20T02:27:38;20.98;;;9.75;;
55330;SDS011;58851;42.984;20.336;2023-07-20T02:30:04;28.77;;;11.68;;
55330;SDS011;58851;42.984;20.336;2023-07-20T02:32:31;32.97;;;14.10;;
55330;SDS011;58851;42.984;20.336;2023-07-20T02:34:57;33.28;;;13.60;;
55330;SDS011;58851;42.984;20.336;2023-07-20T02:37:23;28.45;;;10.68;;
55330;SDS011;58851;42.984;20.336;2023-07-20T02:39:49;27.10;;;10.88;;
55330;SDS011;58851;42.984;20.336;2023-07-20T02:42:15;23.38;;;8.95;;
55330;SDS011;58851;42.984;20.336;2023-07-20T02:44:41;14.98;;;7.53;;
55330;SDS011;58851;42.984;20.336;2023-07-20T02:47:07;13.80;;;7.00;;
55330;SDS011;58851;42.984;20.336;2023-07-20T02:49:32;16.88;;;7.55;;
55330;SDS011;58851;42.984;20.336;2023-07-20T02:51:58;12.77;;;7.47;;
55330;SDS011;58851;42.984;20.336;2023-07-20T02:54:24;19.20;;;9.43;;
55330;SDS011;58851;42.984;20.336;2023-07-20T02:56:50;14.15;;;8.30;;
55330;SDS011;58851;42.984;20.336;2023-07-20T02:59:16;13.98;;;6.93;;
55330;SDS011;58851;42.984;20.336;2023-07-20T03:01:41;26.25;;;12.00;;
55330;SDS011;58851;42.984;20.336;2023-07-20T03:04:07;23.95;;;11.32;;
55330;SDS011;58851;42.984;20.336;2023-07-20T03:06:35;29.35;;;12.02;;
55330;SDS011;58851;42.984;20.336;2023-07-20T03:09:02;30.75;;;9.95;;
55330;SDS011;58851;42.984;20.336;2023-07-20T03:11:32;19.27;;;9.52;;
55330;SDS011;58851;42.984;20.336;2023-07-20T03:13:59;36.33;;;11.65;;
55330;SDS011;58851;42.984;20.336;2023-07-20T03:16:24;28.77;;;12.50;;
55330;SDS011;58851;42.984;20.336;2023-07-20T03:18:51;24.85;;;12.13;;
55330;SDS011;58851;42.984;20.336;2023-07-20T03:21:18;20.38;;;8.52;;
55330;SDS011;58851;42.984;20.336;2023-07-20T03:23:44;13.38;;;7.47;;
55330;SDS011;58851;42.984;20.336;2023-07-20T03:26:09;19.00;;;7.82;;
55330;SDS011;58851;42.984;20.336;2023-07-20T03:28:36;20.98;;;7.85;;
55330;SDS011;58851;42.984;20.336;2023-07-20T03:31:03;14.50;;;7.53;;
55330;SDS011;58851;42.984;20.336;2023-07-20T03:33:29;21.35;;;9.80;;
55330;SDS011;58851;42.984;20.336;2023-07-20T03:35:56;22.63;;;10.40;;
55330;SDS011;58851;42.984;20.336;2023-07-20T03:38:22;16.10;;;8.55;;
55330;SDS011;58851;42.984;20.336;2023-07-20T03:40:49;17.92;;;8.45;;
55330;SDS011;58851;42.984;20.336;2023-07-20T03:43:25;22.30;;;7.97;;
55330;SDS011;58851;42.984;20.336;2023-07-20T03:45:52;19.70;;;8.23;;
55330;SDS011;58851;42.984;20.336;2023-07-20T03:48:19;17.60;;;7.47;;
55330;SDS011;58851;42.984;20.336;2023-07-20T03:50:47;18.63;;;8.27;;
55330;SDS011;58851;42.984;20.336;2023-07-20T03:53:14;19.35;;;8.55;;
55330;SDS011;58851;42.984;20.336;2023-07-20T03:55:40;24.75;;;9.35;;
55330;SDS011;58851;42.984;20.336;2023-07-20T03:58:09;23.88;;;9.10;;
55330;SDS011;58851;42.984;20.336;2023-07-20T04:00:35;26.90;;;8.98;;
55330;SDS011;58851;42.984;20.336;2023-07-20T04:03:01;13.90;;;8.07;;
55330;SDS011;58851;42.984;20.336;2023-07-20T04:05:26;24.77;;;11.73;;
55330;SDS011;58851;42.984;20.336;2023-07-20T04:07:52;22.02;;;12.27;;
55330;SDS011;58851;42.984;20.336;2023-07-20T04:10:18;26.20;;;11.32;;
55330;SDS011;58851;42.984;20.336;2023-07-20T04:12:44;25.55;;;11.65;;
55330;SDS011;58851;42.984;20.336;2023-07-20T04:15:12;20.02;;;8.90;;
55330;SDS011;58851;42.984;20.336;2023-07-20T04:17:39;19.50;;;10.35;;
55330;SDS011;58851;42.984;20.336;2023-07-20T04:20:06;16.85;;;7.63;;
55330;SDS011;58851;42.984;20.336;2023-07-20T04:22:32;16.17;;;8.90;;
55330;SDS011;58851;42.984;20.336;2023-07-20T04:24:58;21.88;;;10.00;;
55330;SDS011;58851;42.984;20.336;2023-07-20T04:27:24;13.23;;;7.63;;
55330;SDS011;58851;42.984;20.336;2023-07-20T04:29:49;15.65;;;7.85;;
55330;SDS011;58851;42.984;20.336;2023-07-20T04:32:15;13.65;;;7.18;;
55330;SDS011;58851;42.984;20.336;2023-07-20T04:34:41;16.63;;;7.90;;
55330;SDS011;58851;42.984;20.336;2023-07-20T04:37:07;16.48;;;7.88;;
55330;SDS011;58851;42.984;20.336;2023-07-20T04:39:33;15.43;;;8.32;;
55330;SDS011;58851;42.984;20.336;2023-07-20T04:41:59;15.68;;;7.70;;
55330;SDS011;58851;42.984;20.336;2023-07-20T04:44:25;24.45;;;7.22;;
55330;SDS011;58851;42.984;20.336;2023-07-20T04:46:51;15.35;;;6.68;;
55330;SDS011;58851;42.984;20.336;2023-07-20T04:49:16;12.88;;;6.70;;
55330;SDS011;58851;42.984;20.336;2023-07-20T04:51:42;16.25;;;6.88;;
55330;SDS011;58851;42.984;20.336;2023-07-20T04:54:08;16.45;;;7.72;;
55330;SDS011;58851;42.984;20.336;2023-07-20T04:56:34;11.13;;;7.07;;
55330;SDS011;58851;42.984;20.336;2023-07-20T04:58:59;21.13;;;7.68;;
55330;SDS011;58851;42.984;20.336;2023-07-20T05:01:25;15.82;;;8.98;;
55330;SDS011;58851;42.984;20.336;2023-07-20T05:03:54;21.23;;;9.63;;
55330;SDS011;58851;42.984;20.336;2023-07-20T05:06:19;25.27;;;10.55;;
55330;SDS011;58851;42.984;20.336;2023-07-20T05:08:45;15.13;;;8.75;;
55330;SDS011;58851;42.984;20.336;2023-07-20T05:11:11;19.92;;;8.48;;
55330;SDS011;58851;42.984;20.336;2023-07-20T05:13:37;18.67;;;7.40;;
55330;SDS011;58851;42.984;20.336;2023-07-20T05:16:03;19.83;;;5.90;;
55330;SDS011;58851;42.984;20.336;2023-07-20T05:18:29;22.98;;;6.78;;
55330;SDS011;58851;42.984;20.336;2023-07-20T05:20:55;16.00;;;5.72;;
55330;SDS011;58851;42.984;20.336;2023-07-20T05:23:21;17.00;;;5.38;;
55330;SDS011;58851;42.984;20.336;2023-07-20T05:25:47;14.88;;;4.82;;
55330;SDS011;58851;42.984;20.336;2023-07-20T05:28:23;13.63;;;4.45;;
55330;SDS011;58851;42.984;20.336;2023-07-20T05:30:49;15.35;;;5.05;;
55330;SDS011;58851;42.984;20.336;2023-07-20T05:33:17;17.50;;;5.65;;
55330;SDS011;58851;42.984;20.336;2023-07-20T05:35:46;18.83;;;5.88;;
55330;SDS011;58851;42.984;20.336;2023-07-20T05:38:12;15.10;;;5.95;;
55330;SDS011;58851;42.984;20.336;2023-07-20T05:40:39;13.32;;;6.38;;
55330;SDS011;58851;42.984;20.336;2023-07-20T05:43:06;13.60;;;6.32;;
55330;SDS011;58851;42.984;20.336;2023-07-20T05:45:32;26.80;;;7.10;;
55330;SDS011;58851;42.984;20.336;2023-07-20T05:47:58;11.88;;;6.35;;
55330;SDS011;58851;42.984;20.336;2023-07-20T05:50:24;18.77;;;6.57;;
55330;SDS011;58851;42.984;20.336;2023-07-20T05:52:52;14.30;;;6.40;;
55330;SDS011;58851;42.984;20.336;2023-07-20T05:55:18;15.00;;;6.60;;
55330;SDS011;58851;42.984;20.336;2023-07-20T05:57:44;16.00;;;5.85;;
55330;SDS011;58851;42.984;20.336;2023-07-20T06:00:10;12.95;;;6.45;;
55330;SDS011;58851;42.984;20.336;2023-07-20T06:02:38;16.13;;;6.28;;
55330;SDS011;58851;42.984;20.336;2023-07-20T06:05:05;11.60;;;5.05;;
55330;SDS011;58851;42.984;20.336;2023-07-20T06:07:37;12.15;;;5.80;;
55330;SDS011;58851;42.984;20.336;2023-07-20T06:10:03;14.32;;;4.88;;
55330;SDS011;58851;42.984;20.336;2023-07-20T06:12:30;13.18;;;4.78;;
55330;SDS011;58851;42.984;20.336;2023-07-20T06:14:57;18.00;;;6.18;;
55330;SDS011;58851;42.984;20.336;2023-07-20T06:17:26;17.17;;;5.32;;
55330;SDS011;58851;42.984;20.336;2023-07-20T06:19:52;14.18;;;5.03;;
55330;SDS011;58851;42.984;20.336;2023-07-20T06:22:18;12.63;;;4.63;;
55330;SDS011;58851;42.984;20.336;2023-07-20T06:24:43;10.45;;;3.50;;
55330;SDS011;58851;42.984;20.336;2023-07-20T06:27:09;16.88;;;6.38;;
55330;SDS011;58851;42.984;20.336;2023-07-20T06:29:35;25.63;;;13.60;;
55330;SDS011;58851;42.984;20.336;2023-07-20T06:32:00;10.07;;;4.43;;
55330;SDS011;58851;42.984;20.336;2023-07-20T06:34:26;9.80;;;4.10;;
55330;SDS011;58851;42.984;20.336;2023-07-20T06:36:52;9.95;;;3.65;;
55330;SDS011;58851;42.984;20.336;2023-07-20T06:39:18;14.77;;;4.15;;
55330;SDS011;58851;42.984;20.336;2023-07-20T06:41:43;18.10;;;4.85;;
55330;SDS011;58851;42.984;20.336;2023-07-20T06:44:09;20.55;;;5.90;;
55330;SDS011;58851;42.984;20.336;2023-07-20T06:46:36;8.93;;;4.47;;
55330;SDS011;58851;42.984;20.336;2023-07-20T06:49:02;12.70;;;4.75;;
55330;SDS011;58851;42.984;20.336;2023-07-20T06:51:27;12.55;;;4.57;;
55330;SDS011;58851;42.984;20.336;2023-07-20T06:53:53;13.70;;;4.38;;
55330;SDS011;58851;42.984;20.336;2023-07-20T06:56:19;12.65;;;5.03;;
55330;SDS011;58851;42.984;20.336;2023-07-20T06:58:45;14.45;;;5.35;;
55330;SDS011;58851;42.984;20.336;2023-07-20T07:01:10;10.55;;;5.15;;
55330;SDS011;58851;42.984;20.336;2023-07-20T07:03:36;11.85;;;5.38;;
55330;SDS011;58851;42.984;20.336;2023-07-20T07:06:02;19.08;;;6.13;;
55330;SDS011;58851;42.984;20.336;2023-07-20T07:08:28;17.08;;;4.75;;
55330;SDS011;58851;42.984;20.336;2023-07-20T07:10:54;11.30;;;4.60;;
55330;SDS011;58851;42.984;20.336;2023-07-20T07:13:20;10.75;;;5.20;;
55330;SDS011;58851;42.984;20.336;2023-07-20T07:15:45;9.52;;;4.95;;
55330;SDS011;58851;42.984;20.336;2023-07-20T07:18:11;14.13;;;5.18;;
55330;SDS011;58851;42.984;20.336;2023-07-20T07:20:37;14.68;;;6.00;;
55330;SDS011;58851;42.984;20.336;2023-07-20T07:23:03;12.40;;;5.15;;
55330;SDS011;58851;42.984;20.336;2023-07-20T07:25:29;12.95;;;4.97;;
55330;SDS011;58851;42.984;20.336;2023-07-20T07:27:55;14.43;;;6.47;;
55330;SDS011;58851;42.984;20.336;2023-07-20T07:30:21;16.00;;;5.50;;
55330;SDS011;58851;42.984;20.336;2023-07-20T07:32:47;12.30;;;6.30;;
55330;SDS011;58851;42.984;20.336;2023-07-20T07:35:13;13.70;;;5.88;;
55330;SDS011;58851;42.984;20.336;2023-07-20T07:37:39;31.75;;;6.85;;
55330;SDS011;58851;42.984;20.336;2023-07-20T07:40:05;17.92;;;6.93;;
55330;SDS011;58851;42.984;20.336;2023-07-20T07:42:33;13.50;;;6.65;;
55330;SDS011;58851;42.984;20.336;2023-07-20T07:44:58;20.08;;;6.20;;
55330;SDS011;58851;42.984;20.336;2023-07-20T07:47:24;11.32;;;5.70;;
55330;SDS011;58851;42.984;20.336;2023-07-20T07:49:50;13.63;;;6.05;;
55330;SDS011;58851;42.984;20.336;2023-07-20T07:52:16;12.38;;;5.68;;
55330;SDS011;58851;42.984;20.336;2023-07-20T07:54:41;11.80;;;5.70;;
55330;SDS011;58851;42.984;20.336;2023-07-20T07:57:07;11.15;;;4.80;;
55330;SDS011;58851;42.984;20.336;2023-07-20T07:59:33;11.18;;;4.97;;
55330;SDS011;58851;42.984;20.336;2023-07-20T08:02:03;13.15;;;5.20;;
55330;SDS011;58851;42.984;20.336;2023-07-20T08:04:30;8.40;;;4.45;;
55330;SDS011;58851;42.984;20.336;2023-07-20T08:06:56;11.70;;;4.28;;
55330;SDS011;58851;42.984;20.336;2023-07-20T08:09:21;13.25;;;4.60;;
55330;SDS011;58851;42.984;20.336;2023-07-20T08:11:47;11.55;;;4.68;;
55330;SDS011;58851;42.984;20.336;2023-07-20T08:14:14;11.68;;;4.45;;
55330;SDS011;58851;42.984;20.336;2023-07-20T08:16:40;12.65;;;5.07;;
55330;SDS011;58851;42.984;20.336;2023-07-20T08:19:06;14.10;;;5.03;;
55330;SDS011;58851;42.984;20.336;2023-07-20T08:21:32;9.23;;;5.80;;
55330;SDS011;58851;42.984;20.336;2023-07-20T08:23:58;9.95;;;3.90;;
55330;SDS011;58851;42.984;20.336;2023-07-20T08:26:23;11.07;;;4.22;;
55330;SDS011;58851;42.984;20.336;2023-07-20T08:28:49;12.57;;;4.90;;
55330;SDS011;58851;42.984;20.336;2023-07-20T08:31:15;12.65;;;4.25;;
55330;SDS011;58851;42.984;20.336;2023-07-20T08:33:41;16.80;;;4.93;;
55330;SDS011;58851;42.984;20.336;2023-07-20T08:36:07;9.35;;;4.70;;
55330;SDS011;58851;42.984;20.336;2023-07-20T08:38:33;15.82;;;4.40;;
55330;SDS011;58851;42.984;20.336;2023-07-20T08:40:59;10.98;;;4.30;;
55330;SDS011;58851;42.984;20.336;2023-07-20T08:43:26;10.20;;;4.45;;
55330;SDS011;58851;42.984;20.336;2023-07-20T08:45:55;9.82;;;4.57;;
55330;SDS011;58851;42.984;20.336;2023-07-20T08:48:22;18.75;;;4.30;;
55330;SDS011;58851;42.984;20.336;2023-07-20T08:50:52;11.30;;;4.28;;
55330;SDS011;58851;42.984;20.336;2023-07-20T08:53:22;12.65;;;4.32;;
55330;SDS011;58851;42.984;20.336;2023-07-20T08:55:49;8.60;;;4.65;;
55330;SDS011;58851;42.984;20.336;2023-07-20T08:58:19;13.48;;;4.28;;
55330;SDS011;58851;42.984;20.336;2023-07-20T09:00:45;11.50;;;4.13;;
55330;SDS011;58851;42.984;20.336;2023-07-20T09:03:17;10.95;;;3.60;;
55330;SDS011;58851;42.984;20.336;2023-07-20T09:05:43;8.80;;;3.13;;
55330;SDS011;58851;42.984;20.336;2023-07-20T09:08:10;12.93;;;3.40;;
55330;SDS011;58851;42.984;20.336;2023-07-20T09:10:35;11.73;;;3.50;;
55330;SDS011;58851;42.984;20.336;2023-07-20T09:13:01;9.13;;;3.40;;
55330;SDS011;58851;42.984;20.336;2023-07-20T09:15:28;8.30;;;3.75;;
55330;SDS011;58851;42.984;20.336;2023-07-20T09:17:55;11.05;;;3.83;;
55330;SDS011;58851;42.984;20.336;2023-07-20T09:20:20;7.82;;;3.47;;
55330;SDS011;58851;42.984;20.336;2023-07-20T09:22:46;8.05;;;3.03;;
55330;SDS011;58851;42.984;20.336;2023-07-20T09:25:13;11.13;;;3.65;;
55330;SDS011;58851;42.984;20.336;2023-07-20T09:27:41;10.98;;;3.90;;
55330;SDS011;58851;42.984;20.336;2023-07-20T09:30:08;12.88;;;4.07;;
55330;SDS011;58851;42.984;20.336;2023-07-20T09:32:46;10.57;;;3.70;;
55330;SDS011;58851;42.984;20.336;2023-07-20T09:35:16;9.52;;;3.30;;
55330;SDS011;58851;42.984;20.336;2023-07-20T09:37:49;11.20;;;3.42;;
55330;SDS011;58851;42.984;20.336;2023-07-20T09:40:19;11.15;;;4.05;;
55330;SDS011;58851;42.984;20.336;2023-07-20T09:42:46;12.15;;;3.33;;
55330;SDS011;58851;42.984;20.336;2023-07-20T09:45:13;9.30;;;3.28;;
55330;SDS011;58851;42.984;20.336;2023-07-20T09:47:39;6.78;;;3.50;;
55330;SDS011;58851;42.984;20.336;2023-07-20T09:50:06;11.45;;;4.05;;
55330;SDS011;58851;42.984;20.336;2023-07-20T09:52:39;14.32;;;3.72;;
55330;SDS011;58851;42.984;20.336;2023-07-20T09:55:06;11.45;;;3.88;;
55330;SDS011;58851;42.984;20.336;2023-07-20T09:57:33;9.90;;;4.25;;
55330;SDS011;58851;42.984;20.336;2023-07-20T10:00:01;9.32;;;4.03;;
55330;SDS011;58851;42.984;20.336;2023-07-20T10:02:33;9.02;;;4.85;;
55330;SDS011;58851;42.984;20.336;2023-07-20T10:05:01;11.45;;;5.05;;
55330;SDS011;58851;42.984;20.336;2023-07-20T10:07:29;16.13;;;4.78;;
55330;SDS011;58851;42.984;20.336;2023-07-20T10:09:56;16.13;;;4.20;;
55330;SDS011;58851;42.984;20.336;2023-07-20T10:12:26;10.18;;;4.63;;
55330;SDS011;58851;42.984;20.336;2023-07-20T10:15:07;11.48;;;3.67;;
55330;SDS011;58851;42.984;20.336;2023-07-20T10:17:40;12.20;;;3.60;;
55330;SDS011;58851;42.984;20.336;2023-07-20T10:20:19;11.10;;;3.92;;
55330;SDS011;58851;42.984;20.336;2023-07-20T10:22:47;9.43;;;4.50;;
55330;SDS011;58851;42.984;20.336;2023-07-20T10:25:16;10.75;;;4.50;;
55330;SDS011;58851;42.984;20.336;2023-07-20T10:27:45;14.68;;;4.22;;
55330;SDS011;58851;42.984;20.336;2023-07-20T10:30:12;10.00;;;3.70;;
55330;SDS011;58851;42.984;20.336;2023-07-20T10:32:39;9.43;;;3.58;;
55330;SDS011;58851;42.984;20.336;2023-07-20T10:35:12;12.98;;;4.45;;
55330;SDS011;58851;42.984;20.336;2023-07-20T10:43:01;18.38;;;4.32;;
55330;SDS011;58851;42.984;20.336;2023-07-20T10:48:21;9.85;;;4.30;;
55330;SDS011;58851;42.984;20.336;2023-07-20T10:53:39;12.20;;;4.38;;
55330;SDS011;58851;42.984;20.336;2023-07-20T10:56:06;15.73;;;4.68;;
55330;SDS011;58851;42.984;20.336;2023-07-20T10:58:34;13.55;;;4.05;;
55330;SDS011;58851;42.984;20.336;2023-07-20T11:01:01;17.73;;;4.80;;
55330;SDS011;58851;42.984;20.336;2023-07-20T11:03:28;10.90;;;3.95;;
55330;SDS011;58851;42.984;20.336;2023-07-20T11:05:56;7.72;;;3.72;;
55330;SDS011;58851;42.984;20.336;2023-07-20T11:08:38;12.77;;;3.72;;
55330;SDS011;58851;42.984;20.336;2023-07-20T11:13:56;13.15;;;4.13;;
55330;SDS011;58851;42.984;20.336;2023-07-20T11:19:16;14.38;;;3.78;;
55330;SDS011;58851;42.984;20.336;2023-07-20T11:21:46;11.68;;;3.85;;
55330;SDS011;58851;42.984;20.336;2023-07-20T11:24:14;17.75;;;3.75;;
55330;SDS011;58851;42.984;20.336;2023-07-20T11:26:40;11.45;;;4.05;;
55330;SDS011;58851;42.984;20.336;2023-07-20T11:29:10;12.30;;;4.22;;
55330;SDS011;58851;42.984;20.336;2023-07-20T11:31:41;13.25;;;4.05;;
55330;SDS011;58851;42.984;20.336;2023-07-20T11:34:12;10.68;;;3.40;;
55330;SDS011;58851;42.984;20.336;2023-07-20T11:36:40;12.65;;;5.15;;
55330;SDS011;58851;42.984;20.336;2023-07-20T11:39:08;14.32;;;4.20;;
55330;SDS011;58851;42.984;20.336;2023-07-20T11:41:34;12.93;;;4.35;;
55330;SDS011;58851;42.984;20.336;2023-07-20T11:44:00;14.52;;;4.18;;
55330;SDS011;58851;42.984;20.336;2023-07-20T11:46:27;8.63;;;3.92;;
55330;SDS011;58851;42.984;20.336;2023-07-20T11:48:57;10.23;;;4.40;;
55330;SDS011;58851;42.984;20.336;2023-07-20T11:51:27;14.88;;;5.10;;
55330;SDS011;58851;42.984;20.336;2023-07-20T11:53:54;19.33;;;4.47;;
55330;SDS011;58851;42.984;20.336;2023-07-20T11:56:22;9.95;;;3.85;;
55330;SDS011;58851;42.984;20.336;2023-07-20T11:58:48;13.32;;;5.07;;
55330;SDS011;58851;42.984;20.336;2023-07-20T12:01:14;13.00;;;4.47;;
55330;SDS011;58851;42.984;20.336;2023-07-20T12:03:43;11.13;;;5.05;;
55330;SDS011;58851;42.984;20.336;2023-07-20T12:06:09;11.95;;;5.15;;
55330;SDS011;58851;42.984;20.336;2023-07-20T12:08:42;14.15;;;4.53;;
55330;SDS011;58851;42.984;20.336;2023-07-20T12:11:09;12.15;;;4.03;;
55330;SDS011;58851;42.984;20.336;2023-07-20T12:13:38;12.52;;;4.53;;
55330;SDS011;58851;42.984;20.336;2023-07-20T12:16:11;9.98;;;4.32;;
55330;SDS011;58851;42.984;20.336;2023-07-20T12:18:42;13.05;;;3.85;;
55330;SDS011;58851;42.984;20.336;2023-07-20T12:21:08;37.90;;;15.00;;
55330;SDS011;58851;42.984;20.336;2023-07-20T12:23:35;78.60;;;30.35;;
55330;SDS011;58851;42.984;20.336;2023-07-20T12:26:09;15.93;;;4.93;;
55330;SDS011;58851;42.984;20.336;2023-07-20T12:28:36;11.43;;;4.30;;
55330;SDS011;58851;42.984;20.336;2023-07-20T12:31:10;14.07;;;4.95;;
55330;SDS011;58851;42.984;20.336;2023-07-20T12:33:36;11.20;;;3.97;;
55330;SDS011;58851;42.984;20.336;2023-07-20T12:36:03;17.67;;;4.63;;
55330;SDS011;58851;42.984;20.336;2023-07-20T12:38:29;10.98;;;5.75;;
55330;SDS011;58851;42.984;20.336;2023-07-20T12:40:56;28.42;;;15.70;;
55330;SDS011;58851;42.984;20.336;2023-07-20T12:43:22;15.13;;;8.05;;
55330;SDS011;58851;42.984;20.336;2023-07-20T12:45:48;15.07;;;4.20;;
55330;SDS011;58851;42.984;20.336;2023-07-20T12:48:14;14.63;;;6.53;;
55330;SDS011;58851;42.984;20.336;2023-07-20T12:50:40;11.35;;;5.40;;
55330;SDS011;58851;42.984;20.336;2023-07-20T12:53:05;8.85;;;4.13;;
55330;SDS011;58851;42.984;20.336;2023-07-20T12:55:31;9.23;;;4.07;;
55330;SDS011;58851;42.984;20.336;2023-07-20T12:57:57;8.50;;;3.83;;
55330;SDS011;58851;42.984;20.336;2023-07-20T13:00:23;14.13;;;4.70;;
55330;SDS011;58851;42.984;20.336;2023-07-20T13:02:49;9.85;;;3.45;;
55330;SDS011;58851;42.984;20.336;2023-07-20T13:05:15;10.05;;;4.43;;
55330;SDS011;58851;42.984;20.336;2023-07-20T13:07:41;11.35;;;4.00;;
55330;SDS011;58851;42.984;20.336;2023-07-20T13:10:08;13.20;;;3.47;;
55330;SDS011;58851;42.984;20.336;2023-07-20T13:12:35;17.35;;;4.43;;
55330;SDS011;58851;42.984;20.336;2023-07-20T13:15:02;16.48;;;4.65;;
55330;SDS011;58851;42.984;20.336;2023-07-20T13:17:33;15.13;;;7.32;;
55330;SDS011;58851;42.984;20.336;2023-07-20T13:20:00;18.50;;;8.52;;
55330;SDS011;58851;42.984;20.336;2023-07-20T13:22:26;16.58;;;4.95;;
55330;SDS011;58851;42.984;20.336;2023-07-20T13:24:52;23.63;;;5.45;;
55330;SDS011;58851;42.984;20.336;2023-07-20T13:27:18;17.80;;;8.35;;
55330;SDS011;58851;42.984;20.336;2023-07-20T13:29:44;11.20;;;7.63;;
55330;SDS011;58851;42.984;20.336;2023-07-20T13:32:13;8.52;;;3.22;;
55330;SDS011;58851;42.984;20.336;2023-07-20T13:34:45;12.52;;;4.13;;
55330;SDS011;58851;42.984;20.336;2023-07-20T13:37:12;10.25;;;3.83;;
55330;SDS011;58851;42.984;20.336;2023-07-20T13:39:38;6.85;;;3.30;;
55330;SDS011;58851;42.984;20.336;2023-07-20T13:42:04;12.52;;;3.67;;
55330;SDS011;58851;42.984;20.336;2023-07-20T13:44:31;13.68;;;3.90;;
55330;SDS011;58851;42.984;20.336;2023-07-20T13:46:57;11.00;;;3.53;;
55330;SDS011;58851;42.984;20.336;2023-07-20T13:49:23;12.07;;;3.88;;
55330;SDS011;58851;42.984;20.336;2023-07-20T13:51:49;9.73;;;3.45;;
55330;SDS011;58851;42.984;20.336;2023-07-20T13:54:14;13.85;;;3.88;;
55330;SDS011;58851;42.984;20.336;2023-07-20T13:56:42;14.57;;;3.55;;
55330;SDS011;58851;42.984;20.336;2023-07-20T13:59:07;12.70;;;3.67;;
55330;SDS011;58851;42.984;20.336;2023-07-20T14:01:33;11.85;;;3.72;;
55330;SDS011;58851;42.984;20.336;2023-07-20T14:04:00;9.60;;;3.03;;
55330;SDS011;58851;42.984;20.336;2023-07-20T14:06:31;11.60;;;3.85;;
55330;SDS011;58851;42.984;20.336;2023-07-20T14:08:57;11.30;;;3.28;;
55330;SDS011;58851;42.984;20.336;2023-07-20T14:11:24;8.65;;;3.45;;
55330;SDS011;58851;42.984;20.336;2023-07-20T14:13:52;8.10;;;3.28;;
55330;SDS011;58851;42.984;20.336;2023-07-20T14:16:19;9.65;;;3.70;;
55330;SDS011;58851;42.984;20.336;2023-07-20T14:18:45;14.35;;;11.30;;
55330;SDS011;58851;42.984;20.336;2023-07-20T14:21:18;10.45;;;3.25;;
55330;SDS011;58851;42.984;20.336;2023-07-20T14:23:45;10.30;;;4.25;;
55330;SDS011;58851;42.984;20.336;2023-07-20T14:26:12;12.68;;;3.90;;
55330;SDS011;58851;42.984;20.336;2023-07-20T14:28:38;13.38;;;3.45;;
55330;SDS011;58851;42.984;20.336;2023-07-20T14:31:04;9.63;;;3.17;;
55330;SDS011;58851;42.984;20.336;2023-07-20T14:33:30;7.20;;;3.28;;
55330;SDS011;58851;42.984;20.336;2023-07-20T14:35:56;8.32;;;3.33;;
55330;SDS011;58851;42.984;20.336;2023-07-20T14:38:22;9.10;;;3.25;;
55330;SDS011;58851;42.984;20.336;2023-07-20T14:40:48;11.70;;;4.15;;
55330;SDS011;58851;42.984;20.336;2023-07-20T14:43:13;10.18;;;3.88;;
55330;SDS011;58851;42.984;20.336;2023-07-20T14:45:42;9.80;;;3.13;;
55330;SDS011;58851;42.984;20.336;2023-07-20T14:48:08;9.75;;;3.70;;
55330;SDS011;58851;42.984;20.336;2023-07-20T14:50:34;15.68;;;3.25;;